Florida AWOS List, Phone Numbers

USA |  
| Search AWOS

Rocky Mountain States: Montana | Wyoming | Colorado | New Mexico

Complete weather reports: Florida

Legend: KFNL = METAR available Follow your local AWOS on AV Mobile = METAR available on AV Mobile
Station Florida Location Frequency Phone
KAQQICAO ID KAQQ Apalachicola, Apalachicola
KAAFFAA ID AAF, ASOS, KAAF 010653Z AUTO 00000KT 10SM CLR 25/24 A3006 RMK AO2 SLP179 T02500239 $ Follow KAAF on AV Mobile APALACHICOLA MUNICIPAL AIRPORT 119.925 850-653-8271
KNAEICAO ID KNAE Astor, Bombing Range Detachment Astor
KAVOFAA ID AVO, AWOS-3 AVON PARK 118.725 863-453-4223
KAGRFAA ID AGR Avon Park Gunnery Range
KBOWFAA ID BOW, AWOS-3, KBOW 010655Z AUTO 00000KT 10SM CLR 24/24 A3011 RMK AO2 Follow KBOW on AV Mobile Bartow Municipal 123.775 863-533-9004
F95FAA ID F95, AWOS-AV, KAJZ 010725Z AUTO 32007G10KT 7SM CLR 21/01 A3002 RMK AO2 T02070007 Follow  on AV Mobile BLOUNTSTOWN 119.350 850-674-1347
KBCTFAA ID BCT, AWOS-3, KBCT 010247Z 10008KT 10SM FEW025 M/M A3010 RMK LAST Follow KBCT on AV Mobile Boca Raton, Boca Raton Airport 121.125 561-391-2696
K1J0FAA ID 1J0, K1J0 010658Z AUTO 00000KT 10SM CLR 22/22 A3009 RMK AO2 SLP146 T02220217 $ Follow K1J0 on AV Mobile TRI COUNTY AIRPORT
KBKVFAA ID BKV, ASOS, KBKV 010653Z AUTO 00000KT 10SM CLR 24/23 A3011 RMK AO2 SLP192 T02390228 Follow KBKV on AV Mobile BROOKSVILLE HERNANDO CO AIRPORT 134.725 352-799-5881
K1J4ICAO ID K1J4 Cape San Blas Coast Guard Station
KNZCICAO ID KNZC Cecil, Naval Air Station
2ISFAA ID 2IS, AWOS-3, KAJZ 010725Z AUTO 32007G10KT 7SM CLR 21/01 A3002 RMK AO2 T02070007 Follow  on AV Mobile CLEWISTON 124.175 863-983-7020
KX53ICAO ID KX53 Clewiston
KCOFFAA ID COF, KCOF 010658Z AUTO 16006KT 10SM CLR 28/24 A3009 RMK AO2 SLP194 T02790244 Follow KCOF on AV Mobile Cocoa / Patrick Air Force Base
KXMRFAA ID XMR, KXMR 010658Z AUTO 00000KT 10SM CLR 24/23 A3009 RMK AO2 SLP192 T02370226 Follow KXMR on AV Mobile Cocoa Beach, Cape Canaveral Air Force Station Skid Strip
KCEWFAA ID CEW, ASOS, KCEW 010653Z AUTO 00000KT 10SM CLR 22/22 A3009 RMK AO2 SLP186 T02220217 Follow KCEW on AV Mobile CRESTVIEW SIKES AIRPORT 119.275 850-682-1237
KEGIFAA ID EGI, KEGI 010658Z AUTO 00000KT 10SM CLR 23/23 A3007 RMK AO2 SLP183 T02250225 $ Follow KEGI on AV Mobile Duke Field / Eglin Auxiliary
KCTYFAA ID CTY, KCTY 010653Z AUTO 00000KT 24/23 A3009 RMK AO1 SLP188 T02390228 Follow KCTY on AV Mobile CROSS CITY AIRPORT
KCGCFAA ID CGC, AWOS-3, KCGC 010655Z AUTO 00000KT 10SM CLR 23/22 A3009 RMK AO2 PWINO Follow KCGC on AV Mobile CRYSTAL RIVER 118.325 352-563-6600
KDABFAA ID DAB, ASOS, KDAB 010653Z 00000KT 9SM CLR 24/23 A3011 RMK AO2 SLP194 T02440233 Follow KDAB on AV Mobile DAYTONA BEACH INTERNATIONAL 386-253-7469
54JFAA ID 54J, AWOS-3P, KAJZ 010725Z AUTO 32007G10KT 7SM CLR 21/01 A3002 RMK AO2 T02070007 Follow  on AV Mobile DEFUNIAK SPRINGS 118.725 850-892-0147
KDEDFAA ID DED, AWOS-3, KDED 010655Z AUTO 00000KT 10SM CLR 24/23 A3011 RMK AO1 Follow KDED on AV Mobile DELAND 119.575 386-740-5811
KDTSFAA ID DTS, ASOS, KDTS 010653Z AUTO 15005KT 10SM FEW022 29/24 A3006 RMK AO2 SLP178 T02940239 TSNO Follow KDTS on AV Mobile DESTIN-FT WALTON BEACH AIRPORT 133.925 850-654-7128
KX91ICAO ID KX91 Egmont Key Coast Guard Station
KFHBFAA ID FHB, AWOS-3, KFHB 010635Z AUTO 00000KT 10SM CLR 26/23 A3010 RMK AO1 Follow KFHB on AV Mobile FERNANDINA BEACH 118.075 904-277-7323
KFXEFAA ID FXE, ASOS, KFXE 010653Z 08006KT 10SM CLR 28/24 A3006 RMK AO2 SLP182 T02780244 Follow KFXE on AV Mobile FORT LAUDERDALE EXECUTIVE 954-772-2537
KFLLFAA ID FLL, ASOS, KFLL 010653Z 08005KT 10SM FEW029 29/23 A3006 RMK AO2 SLP178 T02940228 Follow KFLL on AV Mobile FORT LAUDERDALE/HOLLYWOOD 954-359-7857
KFMYFAA ID FMY, ASOS, KFMY 010653Z AUTO 00000KT 10SM CLR 24/23 A3006 RMK AO2 SLP182 T02440233 Follow KFMY on AV Mobile FORT MYERS PAGE FIELD 239-936-2318
KRSWFAA ID RSW, ASOS, KRSW 010653Z 06004KT 10SM CLR 24/23 A3007 RMK AO2 SLP179 T02390228 Follow KRSW on AV Mobile FORT MYERS SW FL INTERNATIONAL AIRPORT 239-561-0966
KX82ICAO ID KX82 Fort Pierce Coast Guard Station
KFPRFAA ID FPR, ASOS, KFPR 010653Z AUTO 00000KT 9SM CLR 24/22 A3009 RMK AO2 SLP187 T02390222 Follow KFPR on AV Mobile FORT PIERCE ST LUCIE 772-489-4281
KX86ICAO ID KX86 Fowey Rocks Coast Guard Station
KX89ICAO ID KX89 Ft. Myers Beach Coast Guard Station
KGNVFAA ID GNV, ASOS, KGNV 010653Z AUTO 00000KT 10SM CLR 24/22 A3010 RMK AO2 SLP189 T02390222 Follow KGNV on AV Mobile GAINESVILLE REGIONAL AIRPORT 352-335-8672
KHWOFAA ID HWO, ASOS, KHWO 010653Z AUTO 07004KT 10SM CLR 27/23 A3007 RMK AO2 SLP183 T02670228 Follow KHWO on AV Mobile HOLLYWOOD NORTH PERRY AIRPORT 954-983-5904
X51FAA ID X51, AWOS-3, KAJZ 010725Z AUTO 32007G10KT 7SM CLR 21/01 A3002 RMK AO2 T02070007 Follow  on AV Mobile HOMESTEAD 118.375 (305) 247-2791
KHSTFAA ID HST, KHST 010558Z AUTO 08003KT 10SM CLR 28/24 A3007 RMK AO2 CIG 026 RWY23 SLP186 T02750244 10295 20266 58007 Follow KHST on AV Mobile Homestead Air Force Base
KIMMFAA ID IMM, AWOS-3, KIMM 010655Z AUTO 00000KT 7SM CLR 24/ A3009 RMK A01 P000 Follow KIMM on AV Mobile IMMOKALEE 118.525 239-657-2038
KINFFAA ID INF, AWOS-3, KINF 010655Z AUTO 00000KT 10SM CLR 24/23 A3011 RMK AO2 Follow KINF on AV Mobile INVERNESS 119.975 352-341-0264
KX84ICAO ID KX84 Islamorada Coast Guard Station
KHEGFAA ID HEG, AWOS-3 JACKSONVILLE 119.275 904-695-0334
KCRGFAA ID CRG, ASOS, KCRG 010653Z AUTO 00000KT 10SM SCT060 26/23 A3010 RMK AO2 SLP192 T02610233 Follow KCRG on AV Mobile JACKSONVILLE CRAIG MUN 904-646-4670
KJAXFAA ID JAX, ASOS, KJAX 010656Z 14005KT 10SM SCT040 24/23 A3009 RMK AO2 SLP188 T02440233 Follow KJAX on AV Mobile JACKSONVILLE INTERNATIONAL 904-741-4304
KNIPFAA ID NIP, KNIP 010653Z 23005KT 10SM FEW050 28/23 A3010 RMK AO2 SLP190 T02830228 Follow KNIP on AV Mobile JACKSONVILLE NAVAL AIR STN
KVQQFAA ID VQQ, AWOS-3, KVQQ 010635Z AUTO 00000KT 10SM SCT045 23/22 A3011 RMK AO2 Follow KVQQ on AV Mobile Jacksonville, Cecil Field Airport 125.275 904-778-6934
KNENFAA ID NEN NOLF WHITEHOUSE FIELD, FL
KX80ICAO ID KX80 Jupiter Inlet Coast Guard Station
KEYWFAA ID EYW, ASOS, KEYW 010653Z AUTO 09008KT 10SM FEW029 SCT034 BKN060 29/24 A3003 RMK AO2 SLP169 T02940239 Follow KEYW on AV Mobile KEY WEST INTERNATIONAL AIRPORT 119.65 305-292-4046
KNQXFAA ID NQX, KNQX 010653Z AUTO 09011KT 10SM FEW029 29/23 A3003 RMK AO2 SLP167 T02940233 $ Follow KNQX on AV Mobile KEY WEST NAVAL AIR STATION
K42JFAA ID 42J, AWOS-3, K42J 010655Z AUTO RMK AO1 TSNO Follow K42J on AV Mobile KEYSTONE HEIGHTS 124.275 352-473-8273
KLCQFAA ID LCQ, AWOS-3, KLCQ 010635Z AUTO 00000KT 10SM CLR 23/22 A3010 RMK AO2 Follow KLCQ on AV Mobile LAKE CITY 120.675 386-754-9366
X07FAA ID X07, AWOS-3, KAJZ 010725Z AUTO 32007G10KT 7SM CLR 21/01 A3002 RMK AO2 T02070007 Follow  on AV Mobile LAKE WALES 124.225 863-678-1334
KX81ICAO ID KX81 Lake Worth Inlet
KLALFAA ID LAL, AWOS-3PT, KLAL 010655Z AUTO 00000KT 10SM CLR 24/24 A3010 RMK AO2 Follow KLAL on AV Mobile Lakeland Regional 118.025 863-834-2030
KLEEFAA ID LEE, ASOS, KLEE 010653Z AUTO 12004KT 10SM CLR 27/24 A3011 RMK AO2 SLP194 T02670244 Follow KLEE on AV Mobile LEESBURG REGIONAL AIRPORT 134.325 352-787-1565
24JFAA ID 24J, AWOS-3, KAJZ 010725Z AUTO 32007G10KT 7SM CLR 21/01 A3002 RMK AO2 T02070007 Follow  on AV Mobile LIVE OAK 118.225 386-362-1731
KX88ICAO ID KX88 Marathon Coast Guard Station
KMTHFAA ID MTH, ASOS, KMTH 010653Z AUTO 09005KT 10SM FEW027 29/25 A3003 RMK AO2 SLP170 T02890250 Follow KMTH on AV Mobile MARATHON AIRPORT 135.525 305-743-8373
KMKYFAA ID MKY, AWOS-3, KMKY 010655Z AUTO 06005KT 10SM CLR 24/23 A3006 RMK AO1 Follow KMKY on AV Mobile MARCO ISLAND 120.075 239-394-8187
KMAIFAA ID MAI, ASOS, KMAI 010653Z AUTO 00000KT 10SM CLR 24/23 A3007 RMK AO2 SLP181 T02390233 Follow KMAI on AV Mobile MARIANNA MUNICIPAL AIRPORT 133.525 850-482-6082
KHRTFAA ID HRT, KHRT 010658Z AUTO 36003KT 10SM CLR 28/22 A3005 RMK AO2 SLP177 T02840222 $ Follow KHRT on AV Mobile Hurlburt Field
KNRBFAA ID NRB, KNRB 010652Z AUTO 24003KT 10SM FEW035 FEW065 27/24 A3010 RMK AO2 SLP192 T02670239 $ Follow KNRB on AV Mobile MAYPORT NAVAL AIR FACILITY
KMLBFAA ID MLB, ASOS, KMLB 010653Z AUTO 00000KT 10SM CLR 26/23 A3010 RMK AO2 SLP190 T02610233 Follow KMLB on AV Mobile MELBOURNE INTERNATIONAL 321-723-7403
KCOIFAA ID COI, AWOS-3 Merritt Island, Merritt Island Airport 119.025 321-986-8864
KTNTFAA ID TNT, AWOS-3 MIAMI 119.075 (239) 695-9198
KX87ICAO ID KX87 Miami Beach Coast Guard Station
KAMXICAO ID KAMX Miami Nexrad
KTMBFAA ID TMB, ASOS, KTMB 010653Z AUTO 06007KT 10SM FEW030 FEW039 27/23 A3005 RMK AO2 SLP175 T02720233 Follow KTMB on AV Mobile KENDALL-TAMIAMI EXEC AIRPORT 305-235-1332
KMIAFAA ID MIA, ASOS, KMIA 010653Z 07005KT 10SM FEW025 28/23 A3006 RMK AO2 SLP179 T02830233 Follow KMIA on AV Mobile MIAMI INTERNATIONAL AIRPORT 305-870-0235
KOPFFAA ID OPF, KOPF 010653Z AUTO 08005KT 10SM CLR 27/23 A3006 RMK AO2 SLP181 T02720228 $ Follow KOPF on AV Mobile MIAMI OPA LOCKA AIRPORT
KNFJFAA ID NFJ CHOCTAW, WHITING FIELD, NOLF
KNSEFAA ID NSE, KNSE 010556Z AUTO 00000KT 10SM CLR 23/22 A3007 RMK AO2 SLP168 T02330217 10267 20228 403390228 58008 PWINO $ Follow KNSE on AV Mobile MILTON WHITING FIELD (NORTH)
KNDZFAA ID NDZ, KNDZ 010656Z AUTO 00000KT 10SM FEW020 25/23 A3007 RMK AO2 SLPNO T02500228 $ Follow KNDZ on AV Mobile MILTON WHITING FIELD (SOUTH)
KAPFFAA ID APF, ASOS, KAPF 010653Z AUTO 04004KT 10SM CLR 25/23 A3006 RMK AO2 SLP177 T02500233 $ Follow KAPF on AV Mobile NAPLES MUNICIPAL AIRPORT 239-643-9886
KRRFICAO ID KRRF New Port Richey, Tampa Bay Executive Airport
KEVBFAA ID EVB, AWOS-3, KEVB 312347Z 14008KT 10SM SKC 29/23 A3009 Follow KEVB on AV Mobile New Smyrna Beach, New Smyrna Beach Municipal Airport 124.625 386-409-4705
KOCFFAA ID OCF, AWOS-3, KOCF 010655Z AUTO 00000KT 10SM CLR 24/22 A3010 RMK AO1 Follow KOCF on AV Mobile Ocala, Ocala International Airport-Jim Taylor Field 128.125 352-237-8525
KOBEFAA ID OBE, AWOS-3, KOBE 010655Z AUTO 23/22 A3010 RMK AO2 Follow KOBE on AV Mobile Okeechobee County Airport 118.675 863-467-1148
KORLFAA ID ORL, ASOS, KORL 010653Z AUTO 00000KT 10SM CLR 26/23 A3010 RMK AO2 SLP196 T02610233 Follow KORL on AV Mobile ORLANDO EXECUTIVE AIRPORT 407-658-6753
KMCOFAA ID MCO, ASOS, KMCO 010653Z 00000KT 10SM FEW250 25/24 A3010 RMK AO2 SLP192 T02500239 Follow KMCO on AV Mobile ORLANDO INTERNATIONAL AIRPORT 407-855-5235
KSFBFAA ID SFB, ASOS, KSFB 010653Z AUTO 00000KT 10SM CLR 26/23 A3010 RMK AO2 SLP192 T02560233 Follow KSFB on AV Mobile ORLANDO SANFORD AIRPORT 407-321-9384
KISMFAA ID ISM, AWOS-3, KISM 010148Z 11005KT 10SM SKC 28/24 A3012 RMK LAST Follow KISM on AV Mobile Orlando, Kissimmee Municipal Airport 128.775 407-847-0533
KOMNFAA ID OMN, AWOS-3, KOMN 312250Z 09008KT 10SM SKC 30/23 A3007 RMK LAST Follow KOMN on AV Mobile Ormond Beach, Ormond Beach Municipal Airport 118.475 386-615-7084
28JFAA ID 28J, AWOS-3, KAJZ 010725Z AUTO 32007G10KT 7SM CLR 21/01 A3002 RMK AO2 T02070007 Follow  on AV Mobile PALATKA 119.92 386-312-2212
KXFLFAA ID XFL, AWOS-3, KXFL 010635Z AUTO 00000KT 10SM CLR 24/23 A3012 RMK AO2 T02410225 Follow KXFL on AV Mobile PALM COAST 128.325 386-437-7334
KECPFAA ID ECP, ASOS, KECP 010653Z AUTO 00000KT 9SM CLR 24/23 A3006 RMK AO2 SLP190 T02440228 Follow KECP on AV Mobile PANAMA CITY 119.975 850-235-7857
KPFNICAO ID KPFN, KPFN 030253Z VRB03KT 10SM FEW023 25/23 A2989 Follow KPFN on AV Mobile PANAMA CITY-BAY CTY INTERNATIONAL
KPAMFAA ID PAM, KPAM 010558Z AUTO 11003KT 10SM CLR 25/25 A3009 RMK AO2 SLP192 T02470246 10285 20244 58008 $ Follow KPAM on AV Mobile Tyndall Air Force Base
KPNSFAA ID PNS, ASOS, KPNS 010653Z AUTO 17005KT 10SM CLR 26/24 A3006 RMK AO2 SLP179 T02610239 Follow KPNS on AV Mobile PENSACOLA REGIONAL AIRPORT 850-436-4799
KNPAFAA ID NPA, KNPA 010656Z AUTO 17007KT 10SM CLR 28/24 A3005 RMK AO2 SLP176 T02780244 Follow KNPA on AV Mobile Pensacola, Naval Air Station
K40JFAA ID 40J, AWOS-3PT, K40J 010655Z AUTO 00000KT 10SM CLR 24/22 A3009 RMK AO2 Follow K40J on AV Mobile PERRY-FOLEY AIRPORT 118.375 850-838-3526
FA54FAA ID FA54, Belfort CORAL CREEK
KPCMFAA ID PCM, AWOS-3, KPCM 010655Z AUTO 00000KT 10SM CLR 25/ A3011 RMK AO2 Follow KPCM on AV Mobile Plant City, Plant City Municipal Airport 120.025 813-764-8259
KPMPFAA ID PMP, ASOS, KPMP 010653Z AUTO A3007 RMK AO2 SLP185 PWINO Follow KPMP on AV Mobile POMPANO BEACH AIRPARK 954-783-3720
K1J3ICAO ID K1J3 Ponce De Leon Inlet
KPGDFAA ID PGD, ASOS, KPGD 010653Z AUTO 05004KT 10SM CLR 24/23 A3009 RMK AO2 SLP189 T02440228 Follow KPGD on AV Mobile PUNTA GORDA CHARLOTTE COUNTY 135.675 941-639-0076
K1J5ICAO ID K1J5 Santa Rosa Coast Guard Station
KSRQFAA ID SRQ, ASOS, KSRQ 010653Z AUTO 05005KT 10SM CLR 27/24 A3006 RMK AO2 SLP180 T02670239 Follow KSRQ on AV Mobile SARASOTA/BRADENTON INTERNATIONAL . 124.375 941-359-0117
KSEFFAA ID SEF, AWOS-3 SEBRING 119.475 863-655-6424
KSGJFAA ID SGJ, AWOS-3, KSGJ 010558Z AUTO 20004KT 10SM CLR 26/23 A3012 RMK AO2 SLP200 T02560233 10278 20256 58004 Follow KSGJ on AV Mobile St. Augustine, St. Augustine Airport 904-824-7084
KPIEFAA ID PIE, ASOS, KPIE 010653Z AUTO 07006KT 10SM CLR 27/24 A3008 RMK AO2 SLP185 T02720239 Follow KPIE on AV Mobile ST PETERSBURG/CLEARWATER 727-531-3456
KSPGFAA ID SPG, ASOS, KSPG 010653Z AUTO 09007KT 10SM CLR 28/24 A3006 RMK AO2 SLP180 T02830239 Follow KSPG on AV Mobile ST PETERSBURG WHITTED AIRPORT 118.875 727-821-4334
KSUAFAA ID SUA, AWOS-3, KSUA 010655Z AUTO 00000KT 10SM CLR 25/22 A3010 RMK AO2 Follow KSUA on AV Mobile Stuart, Witham Field Airport 772-692-7399
KTLHFAA ID TLH, ASOS, KTLH 010653Z AUTO 00000KT 10SM CLR 24/22 A3008 RMK AO2 SLP184 T02390217 $ Follow KTLH on AV Mobile TALLAHASSEE REGIONAL AIRPORT 850-576-3665
KTBWICAO ID KTBW Tampa Bay Area
KMCFFAA ID MCF, KMCF 010558Z AUTO 01002KT 10SM CLR 25/24 A3011 RMK AO2 SLP199 T02540242 10279 20247 58007 Follow KMCF on AV Mobile Macdill Air Force Base, Fl.
KTPAFAA ID TPA, ASOS, KTPA 010653Z 04005KT 10SM CLR 26/23 A3009 RMK AO2 SLP188 T02560228 Follow KTPA on AV Mobile TAMPA INTERNATIONAL AIRPORT 813-873-7228
KTPFFAA ID TPF, AWOS-3, KTPF 131715Z AUTO 23004KT 10SM CLR 32/23 A3012 RMK AO2 Follow KTPF on AV Mobile Tampa, Peter O Knight Airport 118.925 813-251-6824
KVDFFAA ID VDF, AWOS-3, KVDF 010655Z AUTO 00000KT 10SM CLR 25/23 A3009 RMK AO2 Follow KVDF on AV Mobile Tampa, Vandenberg Airport 121.125 813-630-0924
KVLGICAO ID KVLG The Villages
KVVGICAO ID KVVG, KVVG 182350Z AUTO RMK AO2 PWINO Follow KVVG on AV Mobile The Villages
KX68ICAO ID KX68 Titusville, NASA Shuttle Landing Facility
KTIXFAA ID TIX, KTIX 010050Z 14005KT 7SM SCT025 28/24 A3010 RMK LAST Follow KTIX on AV Mobile Titusville
KX21FAA ID X21, AWOS-3 Titusville, Arthur Dunn Air Park 119.725 321-385-0383
KTTSFAA ID TTS, KTTS 010658Z AUTO 00000KT 10SM CLR 24/23 A3010 RMK AO2 SLP196 T02410232 Follow KTTS on AV Mobile Titusville, NASA Shuttle Landing Facility
KVPSFAA ID VPS, KVPS 010557Z 36002KT 10SM FEW022 FEW250 28/24 A3007 RMK AO2A SLP186 T02810243 10290 20275 403280263 58006 $ Follow KVPS on AV Mobile Valparaiso / Eglin Air Force Base
KVNCFAA ID VNC, AWOS-3, KVNC 010635Z AUTO RMK AO2 VSBY 1/2V5 PWINO TSNO Follow KVNC on AV Mobile VENICE 119.275
KX90ICAO ID KX90 Venice Long Range Navigation
KVRBFAA ID VRB, ASOS, KVRB 010653Z AUTO 00000KT 10SM CLR 23/22 A3009 RMK AO2 SLP188 T02330222 $ Follow KVRB on AV Mobile VERO BEACH MUNICIPAL AIRPORT 772-978-9535
F45FAA ID F45, AWOS-3, KAJZ 010725Z AUTO 32007G10KT 7SM CLR 21/01 A3002 RMK AO2 T02070007 Follow  on AV Mobile WEST PALM BEACH 119.975 561-630-6932
KLNAFAA ID LNA, AWOS-3 WEST PALM BEACH 119.925 561-964-0308
KPBIFAA ID PBI, ASOS, KPBI 010653Z 10007KT 10SM FEW025 28/23 A3007 RMK AO2 SLP182 T02830233 $ Follow KPBI on AV Mobile PALM BEACH INTERNATIONAL 123.75 561-683-2548
FD38FAA ID FD38, Belfort WELLINGTON AERO CLUB
X60FAA ID X60, AWOS-3, KAJZ 010725Z AUTO 32007G10KT 7SM CLR 21/01 A3002 RMK AO2 T02070007 Follow  on AV Mobile WILLISTON 118.425 352-528-9949
KGIFFAA ID GIF, ASOS, KGIF 010653Z AUTO 13004KT 10SM CLR 26/23 A3011 RMK AO2 SLP192 T02610228 TSNO Follow KGIF on AV Mobile WINTER HAVENS GILBERT AIRPORT 133.675 863-956-2097
KZPHFAA ID ZPH, ASOS, KZPH 010655Z AUTO 00000KT 10SM CLR 21/21 A3010 RMK AO2 Follow KZPH on AV Mobile ZEPHYRHILLS 118.975 813-780-0031

Click on the AV Mobile icon AV Mobile icon by any station to follow that AWOS feed on AirportView.net Mobile.

Garmin aera 796 $1999 at Avionics Specialists LLC
Bose A20 Aviation Headsets $995 at Avionics Specialists LLC